createdAt,value
2022-08-02T00:02:28.742Z,100334.41
2022-08-02T00:07:31.995Z,100338.38
2022-08-02T00:12:35.585Z,100335.47
2022-08-02T00:17:40.027Z,100343.47
2022-08-02T00:22:42.830Z,100336.78
2022-08-02T00:27:45.633Z,100345.34
2022-08-02T00:32:50.015Z,100341.41
2022-08-02T00:37:52.891Z,100334.19
2022-08-02T00:43:04.207Z,100344.38
2022-08-02T00:48:10.813Z,100349.19
2022-08-02T00:53:14.085Z,100339.94
2022-08-02T00:58:16.890Z,100351.31
2022-08-02T01:03:21.025Z,100345.81
2022-08-02T01:08:29.424Z,100350.50
2022-08-02T01:13:34.525Z,100360.81
2022-08-02T01:18:45.198Z,100352.38
2022-08-02T01:24:01.217Z,100340.00
2022-08-02T01:29:09.601Z,100346.09
2022-08-02T01:34:21.802Z,100347.50
2022-08-02T01:39:32.553Z,100348.75
2022-08-02T01:44:39.071Z,100348.00
2022-08-02T01:49:44.330Z,100347.28
2022-08-02T01:54:50.430Z,100346.66
2022-08-02T01:59:57.374Z,100357.03
2022-08-02T02:05:02.972Z,100366.75
2022-08-02T02:10:09.707Z,100368.84
2022-08-02T02:15:14.562Z,100370.63
2022-08-02T02:20:20.164Z,100370.22
2022-08-02T02:25:29.344Z,100364.69
2022-08-02T02:30:48.499Z,100364.94
2022-08-02T02:35:53.754Z,100362.97
2022-08-02T02:40:59.734Z,100370.22
2022-08-02T02:46:05.734Z,100363.09
2022-08-02T02:51:14.345Z,100364.44
2022-08-02T02:56:18.312Z,100366.28
2022-08-02T03:01:55.902Z,100368.66
2022-08-02T03:06:53.833Z,100380.13
2022-08-02T03:11:57.920Z,100372.47
2022-08-02T03:17:02.134Z,100377.03
2022-08-02T03:22:05.165Z,100385.41
2022-08-02T03:27:08.055Z,100388.97
2022-08-02T03:32:12.849Z,100396.06
2022-08-02T03:37:16.937Z,100397.28
2022-08-02T03:42:20.666Z,100390.41
2022-08-02T03:47:25.787Z,100395.81
2022-08-02T03:52:29.773Z,100396.31
2022-08-02T03:57:32.624Z,100396.78
2022-08-02T04:02:37.145Z,100393.94
2022-08-02T04:08:33.893Z,100406.09
2022-08-02T04:13:02.683Z,100430.75
2022-08-02T04:18:07.435Z,100431.44
2022-08-02T04:23:12.852Z,100427.88
2022-08-02T04:28:18.576Z,100428.00
2022-08-02T04:33:23.450Z,100433.59
2022-08-02T04:38:26.561Z,100425.38
2022-08-02T04:43:29.374Z,100434.34
2022-08-02T04:48:33.768Z,100448.84
2022-08-02T04:53:36.549Z,100444.78
2022-08-02T04:58:40.702Z,100441.78
2022-08-02T05:03:46.766Z,100454.19
2022-08-02T05:08:52.667Z,100451.47
2022-08-02T05:13:57.932Z,100451.66
2022-08-02T05:19:03.970Z,100451.56
2022-08-02T05:24:07.763Z,100454.00
2022-08-02T05:29:10.644Z,100455.59
2022-08-02T05:34:14.684Z,100455.59
2022-08-02T05:39:18.887Z,100462.88
2022-08-02T05:44:22.064Z,100463.97
2022-08-02T05:49:26.238Z,100469.41
2022-08-02T05:54:39.440Z,100464.50
2022-08-02T05:59:57.177Z,100466.38
2022-08-02T06:05:06.543Z,100473.88
2022-08-02T06:10:13.239Z,100473.06
2022-08-02T06:15:17.951Z,100480.69
2022-08-02T06:20:22.132Z,100475.56
2022-08-02T06:25:50.098Z,100483.31
2022-08-02T06:30:48.465Z,100486.75
2022-08-02T06:36:00.125Z,100475.94
2022-08-02T06:41:07.804Z,100470.53
2022-08-02T06:46:54.343Z,100464.97
2022-08-02T06:51:36.225Z,100476.56
2022-08-02T06:56:38.972Z,100476.44
2022-08-02T07:01:43.107Z,100467.69
2022-08-02T07:06:47.215Z,100465.72
2022-08-02T07:11:50.227Z,100460.31
2022-08-02T07:16:53.515Z,100456.25
2022-08-02T07:22:00.564Z,100456.00
2022-08-02T07:27:12.785Z,100457.09
2022-08-02T07:32:16.691Z,100460.69
2022-08-02T07:37:51.092Z,100451.94
2022-08-02T07:42:44.815Z,100454.28
2022-08-02T07:47:47.883Z,100451.31
2022-08-02T07:52:57.852Z,100447.38
2022-08-02T07:58:00.820Z,100437.31
2022-08-02T08:03:03.657Z,100442.47
2022-08-02T08:08:11.229Z,100433.00
2022-08-02T08:13:18.337Z,100441.22
2022-08-02T08:18:22.377Z,100439.38
2022-08-02T08:23:26.536Z,100441.84
2022-08-02T08:28:29.332Z,100441.97
2022-08-02T08:33:32.234Z,100439.16
2022-08-02T08:38:36.439Z,100429.41
2022-08-02T08:43:39.370Z,100430.53
2022-08-02T08:48:47.364Z,100425.72
2022-08-02T08:53:55.468Z,100425.34
2022-08-02T08:58:58.678Z,100430.03
2022-08-02T09:04:01.720Z,100427.69
2022-08-02T09:09:05.959Z,100423.75
2022-08-02T09:14:08.713Z,100419.19
2022-08-02T09:19:20.139Z,100404.66
2022-08-02T09:24:25.204Z,100407.84
2022-08-02T09:29:41.118Z,100406.72
2022-08-02T09:34:57.860Z,100395.19
2022-08-02T09:40:03.418Z,100401.44
2022-08-02T09:45:07.198Z,100384.72
2022-08-02T09:50:15.077Z,100375.00
2022-08-02T09:55:19.562Z,100368.09
2022-08-02T10:00:37.176Z,100367.09
2022-08-02T10:06:01.207Z,100362.16
2022-08-02T10:11:07.024Z,100366.34
2022-08-02T10:16:10.631Z,100357.22
2022-08-02T10:21:16.301Z,100367.19
2022-08-02T10:26:21.911Z,100372.34
2022-08-02T10:31:29.498Z,100369.53
2022-08-02T10:36:34.745Z,100366.91
2022-08-02T10:41:47.756Z,100364.97
2022-08-02T10:46:50.970Z,100353.00
2022-08-02T10:52:11.358Z,100358.75
2022-08-02T10:57:22.025Z,100353.09
2022-08-02T11:02:37.041Z,100341.84
2022-08-02T11:07:42.182Z,100340.00
2022-08-02T11:13:03.438Z,100332.50
2022-08-02T11:18:06.381Z,100328.78
2022-08-02T11:23:44.326Z,100329.09
2022-08-02T11:28:51.457Z,100327.97
2022-08-02T11:33:55.083Z,100324.28
2022-08-02T11:39:10.432Z,100328.44
2022-08-02T11:44:14.623Z,100316.34
2022-08-02T11:49:19.389Z,100304.25
2022-08-02T11:54:31.675Z,100307.56
2022-08-02T11:59:38.717Z,100308.78
2022-08-02T12:04:42.290Z,100310.94
2022-08-02T12:09:46.909Z,100301.81
2022-08-02T12:14:52.259Z,100291.09
2022-08-02T12:19:55.034Z,100300.09
2022-08-02T12:24:59.166Z,100298.94
2022-08-02T12:30:07.995Z,100295.25
2022-08-02T12:35:13.490Z,100290.56
2022-08-02T12:40:25.771Z,100287.72
2022-08-02T12:45:40.753Z,100282.13
2022-08-02T12:50:45.136Z,100285.59
2022-08-02T12:55:59.334Z,100277.16
2022-08-02T13:01:06.728Z,100280.63
2022-08-02T13:06:32.393Z,100265.06
2022-08-02T13:11:32.152Z,100266.75
2022-08-02T13:16:36.697Z,100266.47
2022-08-02T13:21:41.354Z,100261.75
2022-08-02T13:27:04.473Z,100264.66
2022-08-02T13:32:12.408Z,100264.09
2022-08-02T13:37:15.825Z,100253.09
2022-08-02T13:42:18.715Z,100252.84
2022-08-02T13:47:35.974Z,100246.41
2022-08-02T13:52:39.530Z,100243.41
2022-08-02T13:57:42.299Z,100228.72
2022-08-02T14:02:46.713Z,100223.28
2022-08-02T14:07:49.464Z,100222.13
2022-08-02T14:12:56.499Z,100212.88
2022-08-02T14:18:00.932Z,100210.16
2022-08-02T14:23:03.794Z,100219.88
2022-08-02T14:28:07.162Z,100201.72
2022-08-02T14:33:11.572Z,100202.19
2022-08-02T14:38:14.373Z,100188.91
2022-08-02T14:43:37.519Z,100194.44
2022-08-02T14:48:41.746Z,100196.16
2022-08-02T14:53:49.177Z,100187.91
2022-08-02T14:59:06.093Z,100191.34
2022-08-02T15:04:10.352Z,100185.34
2022-08-02T15:09:13.704Z,100169.66
2022-08-02T15:14:20.286Z,100167.38
2022-08-02T15:19:56.417Z,100159.06
2022-08-02T15:24:53.666Z,100162.22
2022-08-02T15:30:00.293Z,100155.63
2022-08-02T15:35:05.662Z,100154.66
2022-08-02T15:40:09.466Z,100152.50
2022-08-02T15:45:14.752Z,100154.06
2022-08-02T15:50:20.939Z,100148.03
2022-08-02T15:55:23.818Z,100149.03
2022-08-02T16:00:27.879Z,100139.44
2022-08-02T16:05:32.512Z,100145.03
2022-08-02T16:10:35.638Z,100139.91
2022-08-02T16:15:38.597Z,100143.88
2022-08-02T16:20:42.814Z,100139.56
2022-08-02T16:25:45.601Z,100136.41
2022-08-02T16:30:59.469Z,100136.09
2022-08-02T16:36:14.952Z,100139.22
2022-08-02T16:41:22.726Z,100134.88
2022-08-02T16:46:25.819Z,100134.59
2022-08-02T16:51:31.002Z,100135.88
2022-08-02T16:56:33.883Z,100119.28
2022-08-02T17:02:03.194Z,100125.81
2022-08-02T17:07:00.892Z,100118.63
2022-08-02T17:12:03.730Z,100121.75
2022-08-02T17:17:06.624Z,100125.84
2022-08-02T17:22:18.705Z,100120.00
2022-08-02T17:27:21.486Z,100123.25
2022-08-02T17:32:24.421Z,100122.56
2022-08-02T17:37:34.101Z,100128.78
2022-08-02T17:42:44.102Z,100135.50
2022-08-02T17:48:04.449Z,100126.47
2022-08-02T17:53:09.360Z,100131.47
2022-08-02T17:58:12.679Z,100135.56
2022-08-02T18:03:15.662Z,100136.41
2022-08-02T18:08:23.230Z,100136.28
2022-08-02T18:13:28.481Z,100137.13
2022-08-02T18:18:36.061Z,100142.59
2022-08-02T18:23:44.128Z,100139.69
2022-08-02T18:28:51.569Z,100146.00
2022-08-02T18:34:02.023Z,100145.69
2022-08-02T18:39:08.071Z,100148.88
2022-08-02T18:44:29.963Z,100155.19
2022-08-02T18:49:46.885Z,100152.28
2022-08-02T18:54:52.332Z,100149.91
2022-08-02T18:59:55.076Z,100158.06
2022-08-02T19:04:57.824Z,100171.78
2022-08-02T19:10:01.927Z,100164.03
2022-08-02T19:15:04.970Z,100172.81
2022-08-02T19:20:09.208Z,100171.50
2022-08-02T19:25:15.919Z,100167.94
2022-08-02T19:30:20.331Z,100178.34
2022-08-02T19:35:29.913Z,100183.25
2022-08-02T19:40:36.177Z,100179.66
2022-08-02T19:45:50.339Z,100177.41
2022-08-02T19:50:56.461Z,100177.06
2022-08-02T19:56:04.961Z,100186.19
2022-08-02T20:01:09.525Z,100190.56
2022-08-02T20:06:19.674Z,100193.88
2022-08-02T20:11:34.976Z,100196.66
2022-08-02T20:16:38.266Z,100199.97
2022-08-02T20:21:50.515Z,100197.00
2022-08-02T20:26:59.942Z,100203.75
2022-08-02T20:32:03.248Z,100199.28
2022-08-02T20:37:59.765Z,100201.84
2022-08-02T20:42:30.616Z,100200.56
2022-08-02T20:47:39.449Z,100203.72
2022-08-02T20:52:42.898Z,100204.31
2022-08-02T20:58:00.441Z,100200.50
2022-08-02T21:03:05.645Z,100201.44
2022-08-02T21:08:14.007Z,100200.75
2022-08-02T21:13:22.937Z,100195.72
2022-08-02T21:18:36.599Z,100192.06
2022-08-02T21:29:09.131Z,100187.63
2022-08-02T21:34:26.682Z,100195.44
2022-08-02T21:39:30.766Z,100202.03
2022-08-02T21:44:34.983Z,100188.69
2022-08-02T21:50:09.812Z,100195.34
2022-08-02T21:55:00.893Z,100194.19
2022-08-02T22:00:10.665Z,100199.53
2022-08-02T22:10:51.475Z,100200.03
2022-08-02T22:15:57.548Z,100205.78
2022-08-02T22:21:02.292Z,100209.19
2022-08-02T22:26:19.122Z,100211.50
2022-08-02T22:31:41.438Z,100225.53
2022-08-02T22:36:45.478Z,100215.56
2022-08-02T22:42:06.002Z,100228.28
2022-08-02T22:47:14.739Z,100233.00
2022-08-02T22:52:20.117Z,100237.59
2022-08-02T22:57:31.068Z,100234.31
2022-08-02T22:59:10.715Z,100199.13
2022-08-02T22:59:11.397Z,100190.19
2022-08-02T23:02:35.443Z,100238.78
2022-08-02T23:07:41.120Z,100239.69
2022-08-02T23:12:43.935Z,100236.69
2022-08-02T23:18:05.790Z,100248.25
2022-08-02T23:23:10.850Z,100241.13
2022-08-02T23:28:14.632Z,100240.13
2022-08-02T23:33:18.759Z,100225.25
2022-08-02T23:38:21.507Z,100223.69
2022-08-02T23:43:24.215Z,100225.56
2022-08-02T23:48:28.485Z,100225.69
2022-08-02T23:53:31.327Z,100222.41
2022-08-02T23:58:34.137Z,100220.25
